Airfield :
LOGIN :

Register | Disclaimer

   EN    FR    IT 

 










Legend :    VFR   Marginal VFR   IFR   Intensive IFR   Very Intensive IFR
Visi :
Ceiling :
>= 8 km
>= 3000ft
5 to 8 km
1000 to 3000 ft
1500m to 5 km
500 to 1000 ft
800 to 1500m
200 to 500 ft
< 800m
< 200 ft
Symbols :   Thunderstorms  Fog  Heavy snow  Heavy precipitations  Wind > 20 kt
SIGMETs :     Misc.  Thunderstorms  Icing  Turbulence  Mountain Waves  Volcanic Ashes







- Airport Elevation : 466 ft


LHPA - Pápa

CURRENT METAR :
  • 251445Z 36010G19KT CAVOK 11/02 Q1035 NOSIG RMK BLU

EXPIRED METARs :
  • 251415Z 35012KT 320V020 CAVOK 13/M00 Q1035 NOSIG RMK BLU
  • 251345Z 35016KT CAVOK 12/M00 Q1035 NOSIG RMK BLU
  • 251315Z 35014KT CAVOK 12/01 Q1035 NOSIG RMK BLU
  • 251245Z 33014KT CAVOK 12/01 Q1035 NOSIG RMK BLU
  • 251215Z 34014KT CAVOK 12/01 Q1035 NOSIG RMK BLU

TAF TAF LHPA
Valid from the 25 at 12:00 until the 26 at 12:00 UTC


251115Z 2512/2612 35011KT 9999 BKN045
PROB40
TEMPO 2512/2514 35015G25KT
BECMG 2514/2516 CAVOK
BECMG 2516/2519 35005KT
BECMG 2519/2521 VRB03KT
BECMG 2609/2611 21009KT
No reported NOTAMs for that airfield.



MET'MAP, your aeronautical weather chart ! - Copyright ORBIFLY December 2007 - Disclaimer

ORBIFLY MET'MAP TEAM :

Programming & Development : Alexandra Zaïnal
Concept & Development : Baudouin d'Aumeries
Co-Development & Prog : Marc-Olivier Méhu
Technical & hardware support : Manuel Goepfert

Contact : metmap@orbifly.com




SOURCES & CREDITS :

   NOAA